Time;durP1;ratioP1;P1;durP2;ratioP2;P2;SDS_P1;SDS_P2;PMS_P1;PMS_P2;Temp;Humidity;BMP_temperature;BMP_pressure;BME280_temperature;BME280_humidity;BME280_pressure;Samples;Min_cycle;Max_cycle;Signal;HPM_P1;HPM_P2
2021/07/07 00:02:00;;;;;;;14.47;12.90;;;;;;;19.91;100.00;99398.22;1674381;84;21572;-75
2021/07/07 00:04:26;;;;;;;17.60;13.48;;;;;;;19.90;100.00;99393.83;1605408;88;21008;-74
2021/07/07 00:06:52;;;;;;;17.98;13.40;;;;;;;19.91;100.00;99394.05;1600527;87;21580;-74
2021/07/07 00:09:20;;;;;;;17.45;13.62;;;;;;;19.91;100.00;99390.45;1625361;87;21151;-73
2021/07/07 00:11:47;;;;;;;20.25;13.85;;;;;;;19.88;100.00;99390.63;1630644;86;21118;-74
2021/07/07 00:14:13;;;;;;;16.10;13.32;;;;;;;19.87;100.00;99395.98;1623495;87;21042;-74
2021/07/07 00:16:40;;;;;;;15.38;13.35;;;;;;;19.87;100.00;99393.80;1623838;87;21057;-74
2021/07/07 00:19:06;;;;;;;14.93;13.32;;;;;;;19.86;100.00;99394.38;1630877;87;20985;-74
2021/07/07 00:21:32;;;;;;;14.13;12.63;;;;;;;19.84;100.00;99393.16;1673107;84;23366;-73
2021/07/07 00:23:59;;;;;;;21.48;13.18;;;;;;;19.82;100.00;99392.74;1682299;84;21523;-75
2021/07/07 00:26:26;;;;;;;15.35;13.30;;;;;;;19.82;100.00;99398.31;1664580;84;21003;-75
2021/07/07 00:28:53;;;;;;;16.77;13.08;;;;;;;19.79;100.00;99397.09;1671373;84;21968;-74
2021/07/07 00:31:20;;;;;;;16.60;13.20;;;;;;;19.78;100.00;99404.64;1669609;85;21113;-74
2021/07/07 00:33:46;;;;;;;15.15;12.88;;;;;;;19.79;100.00;99402.07;1661868;84;21153;-74
2021/07/07 00:36:13;;;;;;;15.90;12.23;;;;;;;19.80;100.00;99407.05;1668419;84;21170;-74
2021/07/07 00:38:39;;;;;;;15.10;12.65;;;;;;;19.81;100.00;99404.47;1664659;84;21120;-74
2021/07/07 00:41:06;;;;;;;19.77;11.80;;;;;;;19.82;100.00;99413.04;1666359;84;21068;-75
2021/07/07 00:43:34;;;;;;;18.05;12.53;;;;;;;19.84;100.00;99414.05;1677710;84;21572;-74
2021/07/07 00:46:02;;;;;;;17.67;13.58;;;;;;;19.83;100.00;99413.84;1666411;85;21182;-74
2021/07/07 00:48:29;;;;;;;19.25;12.30;;;;;;;19.81;100.00;99407.85;1674851;84;20965;-74
2021/07/07 00:50:59;;;;;;;16.32;13.08;;;;;;;19.78;100.00;99408.02;1668835;84;21525;-75
2021/07/07 00:53:25;;;;;;;14.20;12.70;;;;;;;19.78;100.00;99411.61;1670777;84;21033;-74
2021/07/07 00:55:53;;;;;;;20.32;13.75;;;;;;;19.76;100.00;99411.77;1679851;84;21173;-74
2021/07/07 00:58:21;;;;;;;15.28;12.80;;;;;;;19.74;100.00;99413.55;1647309;84;21139;-74
2021/07/07 01:00:47;;;;;;;15.65;12.13;;;;;;;19.73;100.00;99420.30;1668392;84;21037;-74
2021/07/07 01:03:14;;;;;;;15.83;12.30;;;;;;;19.69;100.00;99418.66;1674695;84;21001;-73
2021/07/07 01:05:41;;;;;;;18.35;12.70;;;;;;;19.66;100.00;99418.82;1663955;84;21732;-73
2021/07/07 01:08:07;;;;;;;17.00;12.98;;;;;;;19.63;100.00;99416.83;1661642;84;21587;-72
2021/07/07 01:10:35;;;;;;;18.60;13.03;;;;;;;19.60;100.00;99420.38;1667913;84;21153;-73
2021/07/07 01:13:01;;;;;;;15.88;12.82;;;;;;;19.56;100.00;99423.70;1666202;84;20967;-73
2021/07/07 01:15:27;;;;;;;22.73;13.22;;;;;;;19.51;100.00;99417.07;1681204;84;20965;-73
2021/07/07 01:17:55;;;;;;;19.77;13.35;;;;;;;19.48;100.00;99419.78;1668513;85;21014;-73
2021/07/07 01:20:23;;;;;;;16.25;12.65;;;;;;;19.43;100.00;99413.36;1670590;85;21002;-73
2021/07/07 01:22:50;;;;;;;25.23;13.83;;;;;;;19.38;100.00;99420.66;1662413;85;21561;-73
2021/07/07 01:25:18;;;;;;;19.85;13.05;;;;;;;19.34;100.00;99422.58;1668137;85;21171;-73
2021/07/07 01:27:45;;;;;;;16.30;12.78;;;;;;;19.33;100.00;99425.16;1661278;85;20993;-73
2021/07/07 01:30:17;;;;;;;14.00;11.18;;;;;;;19.34;100.00;99425.95;1596543;87;21024;-73
2021/07/07 01:32:44;;;;;;;16.97;12.03;;;;;;;19.32;100.00;99426.33;1665874;84;21069;-74
2021/07/07 01:35:13;;;;;;;16.35;12.43;;;;;;;19.32;100.00;99426.92;1674220;84;21943;-74
2021/07/07 01:37:40;;;;;;;22.13;13.10;;;;;;;19.31;100.00;99423.92;1669634;84;20964;-73
2021/07/07 01:40:11;;;;;;;20.55;12.10;;;;;;;19.32;100.00;99421.36;1671303;84;21758;-74
2021/07/07 01:42:37;;;;;;;17.75;12.37;;;;;;;19.35;100.00;99424.19;1674205;84;21057;-72
2021/07/07 01:45:12;;;;;;;18.73;12.58;;;;;;;19.35;100.00;99424.78;1677477;84;21083;-74
2021/07/07 01:47:38;;;;;;;14.10;10.72;;;;;;;19.33;100.00;99427.94;1656522;84;21087;-74
2021/07/07 01:50:07;;;;;;;17.20;12.07;;;;;;;19.33;100.00;99428.53;1651026;84;21030;-74
2021/07/07 01:52:33;;;;;;;22.85;11.78;;;;;;;19.32;100.00;99425.53;1668963;85;21001;-74
2021/07/07 01:55:00;;;;;;;24.02;11.55;;;;;;;19.32;100.00;99426.92;1665182;84;21026;-74
2021/07/07 01:57:43;;;;;;;16.23;11.43;;;;;;;19.31;100.00;99430.88;1667557;84;21095;-74
2021/07/07 01:59:56;;;;;;;17.92;13.25;;;;;;;19.28;100.00;99431.64;1659742;84;21806;-74
2021/07/07 02:02:23;;;;;;;16.00;12.82;;;;;;;19.26;100.00;99434.80;1670564;84;21681;-73
2021/07/07 02:04:49;;;;;;;14.98;13.13;;;;;;;19.27;100.00;99434.20;1666691;84;21040;-74
2021/07/07 02:07:15;;;;;;;18.17;13.60;;;;;;;19.28;100.00;99439.40;1667528;84;20933;-73
2021/07/07 02:09:42;;;;;;;18.73;15.13;;;;;;;19.29;100.00;99441.59;1661355;85;21583;-73
2021/07/07 02:12:09;;;;;;;15.78;14.03;;;;;;;19.31;100.00;99440.62;1664360;85;21150;-74
2021/07/07 02:14:36;;;;;;;26.60;15.48;;;;;;;19.33;100.00;99439.07;1672651;85;21065;-72
2021/07/07 02:17:03;;;;;;;25.23;14.75;;;;;;;19.38;100.00;99442.12;1662347;85;20996;-73
2021/07/07 02:19:31;;;;;;;20.25;14.33;;;;;;;19.41;100.00;99449.72;1664998;85;21057;-74
2021/07/07 02:21:57;;;;;;;17.02;14.53;;;;;;;19.43;100.00;99448.75;1675913;84;20938;-73
2021/07/07 02:24:23;;;;;;;21.05;13.70;;;;;;;19.45;100.00;99447.78;1675158;84;21438;-74
2021/07/07 02:26:50;;;;;;;17.30;14.78;;;;;;;19.49;100.00;99450.61;1668075;85;21138;-74
2021/07/07 02:29:17;;;;;;;16.60;13.18;;;;;;;19.52;100.00;99456.26;1671563;85;21144;-73
2021/07/07 02:31:43;;;;;;;17.35;13.58;;;;;;;19.53;100.00;99452.30;1669654;85;21033;-74
2021/07/07 02:34:10;;;;;;;19.00;13.78;;;;;;;19.56;100.00;99452.94;1664920;84;21080;-73
2021/07/07 02:36:36;;;;;;;19.12;13.28;;;;;;;19.59;100.00;99452.77;1661770;85;21810;-74
2021/07/07 02:39:04;;;;;;;19.15;13.62;;;;;;;19.62;100.00;99457.58;1660727;85;21070;-74
2021/07/07 02:41:31;;;;;;;18.90;13.80;;;;;;;19.62;100.00;99459.77;1660212;85;21081;-74
2021/07/07 02:43:58;;;;;;;16.05;13.22;;;;;;;19.64;100.00;99462.18;1663247;85;21535;-73
2021/07/07 02:46:25;;;;;;;20.10;13.35;;;;;;;19.66;100.00;99452.23;1677409;84;21037;-74
2021/07/07 02:48:53;;;;;;;20.35;13.13;;;;;;;19.69;100.00;99461.23;1659974;84;20956;-74
2021/07/07 02:51:19;;;;;;;22.48;13.85;;;;;;;19.71;100.00;99460.26;1674247;84;21542;-74
2021/07/07 02:53:45;;;;;;;15.60;13.60;;;;;;;19.72;100.00;99459.67;1667432;84;21028;-73
2021/07/07 02:56:12;;;;;;;23.70;13.75;;;;;;;19.74;100.00;99461.48;1676518;84;21009;-75
2021/07/07 02:58:38;;;;;;;21.25;14.28;;;;;;;19.73;100.00;99463.47;1660955;84;21136;-74
2021/07/07 03:01:05;;;;;;;18.52;13.80;;;;;;;19.75;100.00;99463.89;1663719;84;21041;-75
2021/07/07 03:03:31;;;;;;;18.73;12.82;;;;;;;19.77;100.00;99460.14;1673165;84;21034;-75
2021/07/07 03:06:00;;;;;;;15.75;13.62;;;;;;;19.80;100.00;99466.94;1664808;84;21502;-74
2021/07/07 03:08:31;;;;;;;18.17;13.68;;;;;;;19.82;100.00;99474.91;1681876;84;21092;-74
2021/07/07 03:11:00;;;;;;;24.85;13.75;;;;;;;19.86;100.00;99477.15;1665468;84;21021;-74
2021/07/07 03:13:27;;;;;;;24.57;13.62;;;;;;;19.90;100.00;99473.81;1659722;85;21143;-74
2021/07/07 03:15:55;;;;;;;18.77;14.15;;;;;;;19.93;100.00;99469.68;1662476;85;21697;-74
2021/07/07 03:18:22;;;;;;;14.53;12.80;;;;;;;19.97;100.00;99483.66;1661373;85;21132;-74
2021/07/07 03:20:52;;;;;;;19.02;14.00;;;;;;;20.00;100.00;99473.14;1661583;85;21513;-74
2021/07/07 03:23:21;;;;;;;22.73;13.72;;;;;;;20.05;100.00;99483.36;1660948;85;21471;-75
2021/07/07 03:25:49;;;;;;;21.40;13.98;;;;;;;20.14;100.00;99483.65;1665087;84;21136;-75
2021/07/07 03:28:21;;;;;;;16.10;13.28;;;;;;;20.24;100.00;99485.72;1658303;84;20985;-75
2021/07/07 03:30:48;;;;;;;18.77;13.32;;;;;;;20.35;100.00;99486.05;1666352;85;21112;-76
2021/07/07 03:33:15;;;;;;;16.93;12.95;;;;;;;20.45;100.00;99488.77;1665469;83;21073;-76
2021/07/07 03:35:42;;;;;;;19.10;12.23;;;;;;;20.54;100.00;99494.03;1662988;85;21199;-75
2021/07/07 03:38:08;;;;;;;18.40;13.53;;;;;;;20.62;100.00;99497.91;1657834;84;21598;-74
2021/07/07 03:40:36;;;;;;;16.82;13.13;;;;;;;20.70;100.00;99501.56;1652737;84;21123;-76
2021/07/07 03:43:03;;;;;;;19.23;13.40;;;;;;;20.77;100.00;99501.62;1655631;85;21112;-75
2021/07/07 03:45:30;;;;;;;17.48;13.62;;;;;;;20.83;100.00;99509.02;1663513;85;21750;-75
2021/07/07 03:47:58;;;;;;;18.65;13.90;;;;;;;20.87;100.00;99503.67;1660132;85;21583;-75
2021/07/07 03:50:25;;;;;;;17.23;12.15;;;;;;;20.91;100.00;99504.51;1659060;85;21112;-76
2021/07/07 03:52:54;;;;;;;16.77;13.32;;;;;;;20.93;100.00;99509.70;1643891;85;21033;-75
2021/07/07 03:55:22;;;;;;;14.53;12.85;;;;;;;20.92;100.00;99508.91;1653337;85;20997;-75
2021/07/07 03:57:48;;;;;;;21.62;13.78;;;;;;;20.94;100.00;99506.53;1672650;84;21057;-76
2021/07/07 04:00:20;;;;;;;17.07;13.20;;;;;;;20.94;100.00;99501.54;1680735;84;21549;-76
2021/07/07 04:02:46;;;;;;;14.83;13.15;;;;;;;20.95;100.00;99508.13;1662984;85;21147;-76
2021/07/07 04:05:12;;;;;;;18.17;12.68;;;;;;;20.93;100.00;99511.90;1608405;88;21738;-76
2021/07/07 04:07:40;;;;;;;20.30;13.22;;;;;;;20.96;100.00;99513.12;1600837;88;21554;-76
2021/07/07 04:10:08;;;;;;;15.28;13.10;;;;;;;20.99;100.00;99510.95;1596954;88;21581;-76
2021/07/07 04:12:35;;;;;;;21.80;12.07;;;;;;;20.98;100.00;99518.52;1661869;85;21123;-75
2021/07/07 04:15:05;;;;;;;17.12;11.80;;;;;;;20.99;100.00;99516.53;1678950;84;21135;-75
2021/07/07 04:17:32;;;;;;;20.48;12.85;;;;;;;21.00;100.00;99513.35;1674631;84;21242;-75
2021/07/07 04:19:58;;;;;;;14.78;11.95;;;;;;;21.00;100.00;99514.75;1666973;84;21037;-75
2021/07/07 04:22:26;;;;;;;16.12;12.53;;;;;;;21.06;100.00;99516.59;1606140;87;21066;-75
2021/07/07 04:24:52;;;;;;;16.65;11.15;;;;;;;21.12;100.00;99517.03;1671931;84;21023;-75
2021/07/07 04:27:18;;;;;;;19.35;10.88;;;;;;;21.15;100.00;99514.27;1660526;85;21094;-75
2021/07/07 04:29:45;;;;;;;16.02;11.20;;;;;;;21.16;100.00;99514.48;1660743;85;20969;-75
2021/07/07 04:32:12;;;;;;;13.65;10.25;;;;;;;21.23;100.00;99519.34;1673105;84;21628;-75
2021/07/07 04:34:38;;;;;;;16.32;10.25;;;;;;;21.30;100.00;99520.80;1669881;85;21085;-75
2021/07/07 04:37:05;;;;;;;14.23;10.32;;;;;;;21.36;100.00;99517.25;1667034;85;21596;-75
2021/07/07 04:39:31;;;;;;;17.52;9.35;;;;;;;21.46;100.00;99516.28;1673294;85;21905;-75
2021/07/07 04:41:58;;;;;;;18.20;10.05;;;;;;;21.55;100.00;99521.73;1662191;85;21568;-73
2021/07/07 04:44:24;;;;;;;11.95;9.25;;;;;;;21.65;100.00;99530.77;1652756;85;20970;-76
2021/07/07 04:46:50;;;;;;;13.62;9.08;;;;;;;21.75;100.00;99532.02;1626415;86;20998;-77
2021/07/07 04:49:17;;;;;;;21.27;9.88;;;;;;;21.84;99.20;99534.46;1665205;84;21009;-78
2021/07/07 04:51:44;;;;;;;22.37;9.35;;;;;;;21.89;98.16;99529.90;1669513;84;21166;-78
2021/07/07 04:54:10;;;;;;;12.78;8.35;;;;;;;21.94;97.03;99538.70;1676366;84;21078;-67
2021/07/07 04:56:37;;;;;;;18.17;8.43;;;;;;;22.01;95.19;99544.33;1673125;84;21116;-67
2021/07/07 04:59:03;;;;;;;14.40;7.80;;;;;;;22.08;94.25;99546.36;1675087;84;21036;-66
2021/07/07 05:01:30;;;;;;;12.03;6.28;;;;;;;22.13;91.99;99545.98;1671646;84;21034;-67
2021/07/07 05:03:56;;;;;;;14.10;6.22;;;;;;;22.15;89.79;99544.98;1659372;84;21177;-67
2021/07/07 05:06:24;;;;;;;12.65;6.05;;;;;;;22.19;89.69;99549.20;1666723;84;21001;-68
2021/07/07 05:08:53;;;;;;;11.40;5.08;;;;;;;22.25;88.31;99550.42;1659523;85;21117;-67
2021/07/07 05:11:20;;;;;;;10.08;4.35;;;;;;;22.27;85.43;99553.63;1607685;87;21090;-68
2021/07/07 05:13:47;;;;;;;9.73;4.78;;;;;;;22.25;81.64;99565.20;1614329;87;21016;-67
2021/07/07 05:16:13;;;;;;;11.05;4.20;;;;;;;22.19;80.25;99567.37;1625325;87;21156;-68
2021/07/07 05:18:40;;;;;;;11.45;5.10;;;;;;;22.15;79.56;99566.55;1642837;86;20943;-67
2021/07/07 05:21:06;;;;;;;18.92;5.60;;;;;;;22.13;79.50;99571.73;1669763;84;21052;-67
2021/07/07 05:23:34;;;;;;;13.40;4.92;;;;;;;22.11;79.40;99576.92;1668163;84;21596;-67
2021/07/07 05:26:05;;;;;;;11.73;5.03;;;;;;;22.11;80.04;99576.92;1670054;84;21068;-68
2021/07/07 05:28:29;;;;;;;11.48;4.83;;;;;;;22.14;79.90;99582.53;1663255;84;21190;-68
2021/07/07 05:31:03;;;;;;;13.38;5.15;;;;;;;22.18;79.54;99587.54;1662631;85;21715;-68
2021/07/07 05:33:33;;;;;;;8.08;5.50;;;;;;;22.21;79.76;99587.35;1673859;84;21083;-68
2021/07/07 05:35:54;;;;;;;15.75;5.62;;;;;;;22.24;78.83;99586.56;1676646;84;21037;-68
2021/07/07 05:38:20;;;;;;;11.00;4.90;;;;;;;22.25;79.64;99583.97;1661970;85;20985;-67
2021/07/07 05:40:46;;;;;;;13.22;4.42;;;;;;;22.28;79.57;99590.18;1663853;85;21159;-69
2021/07/07 05:43:13;;;;;;;16.02;4.55;;;;;;;22.32;77.30;99595.99;1677961;85;20910;-68
2021/07/07 05:45:40;;;;;;;18.45;5.05;;;;;;;22.36;77.24;99592.61;1663360;85;21687;-67
2021/07/07 05:48:07;;;;;;;11.70;4.85;;;;;;;22.40;75.51;99595.42;1662716;85;20977;-68
2021/07/07 05:50:33;;;;;;;12.25;3.95;;;;;;;22.45;75.19;99602.63;1670329;84;21571;-68
2021/07/07 05:53:01;;;;;;;15.98;5.78;;;;;;;22.49;74.23;99603.45;1660241;85;21158;-68
2021/07/07 05:55:28;;;;;;;19.48;5.15;;;;;;;22.53;73.99;99598.66;1608976;87;21059;-68
2021/07/07 05:57:55;;;;;;;14.93;4.67;;;;;;;22.58;74.88;99599.05;1637005;87;21099;-68
2021/07/07 06:00:23;;;;;;;10.65;4.40;;;;;;;22.65;73.75;99603.88;1631387;87;21633;-68
2021/07/07 06:02:52;;;;;;;10.60;4.22;;;;;;;22.67;72.21;99601.48;1672568;84;21543;-68
2021/07/07 06:05:19;;;;;;;12.10;4.00;;;;;;;22.60;70.67;99611.25;1668198;84;23377;-68
2021/07/07 06:07:46;;;;;;;14.75;5.58;;;;;;;22.49;69.93;99603.45;1668249;85;20949;-68
2021/07/07 06:10:15;;;;;;;12.55;4.25;;;;;;;22.39;70.86;99612.00;1671883;85;20957;-68
2021/07/07 06:12:42;;;;;;;11.88;4.62;;;;;;;22.34;71.10;99607.58;1664415;85;21107;-68
2021/07/07 06:15:12;;;;;;;14.20;4.53;;;;;;;22.41;73.16;99609.61;1658354;85;20969;-68
2021/07/07 06:17:38;;;;;;;13.68;4.03;;;;;;;22.59;73.30;99614.64;1663627;85;21803;-67
2021/07/07 06:20:07;;;;;;;12.60;3.75;;;;;;;22.82;71.59;99609.34;1667024;85;21540;-68
2021/07/07 06:22:33;;;;;;;10.30;4.10;;;;;;;23.04;71.43;99615.98;1669525;85;21083;-68
2021/07/07 06:25:00;;;;;;;16.37;4.40;;;;;;;23.23;70.10;99619.58;1676035;85;21085;-67
2021/07/07 06:27:26;;;;;;;11.08;4.00;;;;;;;23.39;68.97;99617.98;1666223;85;22150;-68
2021/07/07 06:29:53;;;;;;;11.35;3.72;;;;;;;23.50;68.58;99625.59;1669491;85;21150;-67
2021/07/07 06:32:20;;;;;;;15.78;3.75;;;;;;;23.60;68.48;99624.22;1664730;85;21016;-68
2021/07/07 06:34:46;;;;;;;12.53;3.42;;;;;;;23.68;62.53;99623.61;1665986;85;21576;-68
2021/07/07 06:37:13;;;;;;;13.20;3.02;;;;;;;23.69;62.23;99622.38;1666375;85;21009;-68
2021/07/07 06:39:39;;;;;;;12.25;3.42;;;;;;;23.69;61.63;99625.17;1671962;85;21123;-68
2021/07/07 06:42:06;;;;;;;13.50;3.98;;;;;;;23.70;63.42;99627.58;1662580;84;22706;-68
2021/07/07 06:44:32;;;;;;;7.00;3.50;;;;;;;23.79;62.53;99629.17;1669735;84;21034;-67
2021/07/07 06:46:58;;;;;;;7.17;3.10;;;;;;;23.84;61.40;99629.56;1673405;84;21434;-67
2021/07/07 06:49:25;;;;;;;5.37;3.40;;;;;;;23.94;62.87;99632.16;1678165;84;20983;-67
2021/07/07 06:51:53;;;;;;;5.47;2.70;;;;;;;24.06;62.63;99622.52;1682801;84;21674;-68
2021/07/07 06:54:19;;;;;;;6.58;3.20;;;;;;;24.10;62.00;99630.31;1659120;84;21150;-68
2021/07/07 06:56:45;;;;;;;6.03;3.87;;;;;;;24.04;62.66;99634.94;1663960;84;21602;-67
2021/07/07 06:59:11;;;;;;;10.98;3.12;;;;;;;23.98;62.42;99631.55;1657826;84;21029;-68
2021/07/07 07:01:38;;;;;;;7.03;3.42;;;;;;;23.94;64.08;99636.36;1654348;85;21077;-67
2021/07/07 07:04:04;;;;;;;9.85;3.60;;;;;;;23.93;63.76;99638.36;1660267;85;21449;-67
2021/07/07 07:06:31;;;;;;;6.92;3.30;;;;;;;23.96;63.76;99643.77;1655548;85;21213;-68
2021/07/07 07:08:59;;;;;;;6.87;3.12;;;;;;;24.08;65.33;99639.73;1628108;86;21537;-68
2021/07/07 07:11:25;;;;;;;5.22;2.58;;;;;;;24.29;63.80;99648.89;1637928;86;21306;-68
2021/07/07 07:13:51;;;;;;;7.08;2.70;;;;;;;24.48;61.47;99652.44;1629717;86;21056;-68
2021/07/07 07:16:19;;;;;;;4.10;2.58;;;;;;;24.59;59.42;99651.19;1627511;87;21159;-68
2021/07/07 07:18:46;;;;;;;7.53;3.25;;;;;;;24.62;57.66;99648.97;1614392;87;21170;-68
2021/07/07 07:21:12;;;;;;;6.65;3.25;;;;;;;24.70;58.56;99656.75;1667578;84;21576;-68
2021/07/07 07:23:38;;;;;;;10.13;3.17;;;;;;;24.79;57.62;99658.52;1596402;87;21078;-68
2021/07/07 07:26:05;;;;;;;3.33;3.00;;;;;;;24.83;55.58;99650.08;1617229;87;20998;-67
2021/07/07 07:28:31;;;;;;;7.70;3.10;;;;;;;24.76;56.06;99652.92;1659140;85;21246;-67
2021/07/07 07:30:58;;;;;;;3.80;2.70;;;;;;;24.73;58.43;99652.33;1670011;85;21113;-68
2021/07/07 07:33:25;;;;;;;6.95;3.25;;;;;;;24.68;58.15;99648.74;1665197;84;21543;-67
2021/07/07 07:35:51;;;;;;;5.40;2.92;;;;;;;24.66;58.75;99653.16;1670487;84;21077;-67
2021/07/07 07:38:29;;;;;;;3.37;2.95;;;;;;;24.68;58.26;99650.75;1672461;85;21106;-67
2021/07/07 07:40:55;;;;;;;3.77;3.08;;;;;;;24.73;59.79;99654.53;1661252;84;21491;-68
2021/07/07 07:43:22;;;;;;;3.40;3.00;;;;;;;24.83;59.93;99648.06;1661842;85;21087;-67
2021/07/07 07:45:54;;;;;;;3.85;3.25;;;;;;;24.92;58.12;99651.80;1654347;85;21021;-68
2021/07/07 07:48:22;;;;;;;5.28;2.70;;;;;;;24.96;58.56;99657.63;1679464;84;21037;-68
2021/07/07 07:50:50;;;;;;;7.42;3.00;;;;;;;24.97;58.57;99652.80;1663878;85;21002;-68
2021/07/07 07:53:17;;;;;;;4.08;2.30;;;;;;;25.04;59.66;99656.17;1671189;85;20974;-67
2021/07/07 07:55:43;;;;;;;6.80;2.80;;;;;;;25.13;54.50;99657.32;1675457;84;21194;-68
2021/07/07 07:58:09;;;;;;;3.50;2.65;;;;;;;25.16;55.84;99657.91;1664499;85;21591;-68
2021/07/07 08:00:36;;;;;;;3.92;2.52;;;;;;;25.18;54.22;99660.30;1663656;85;21112;-68
2021/07/07 08:03:03;;;;;;;6.08;2.40;;;;;;;25.21;55.43;99660.28;1604662;87;21102;-68
2021/07/07 08:05:30;;;;;;;5.55;2.70;;;;;;;25.28;54.70;99661.63;1621455;87;21455;-68
2021/07/07 08:08:01;;;;;;;6.45;2.85;;;;;;;25.36;54.83;99667.20;1663757;84;21169;-68
2021/07/07 08:10:25;;;;;;;3.85;2.70;;;;;;;25.43;56.17;99664.31;1668395;84;21021;-68
2021/07/07 08:12:52;;;;;;;4.25;2.62;;;;;;;25.58;57.13;99666.59;1671337;84;21101;-68
2021/07/07 08:15:18;;;;;;;2.85;2.27;;;;;;;25.78;57.97;99669.67;1656214;84;21056;-68
2021/07/07 08:17:46;;;;;;;4.33;2.70;;;;;;;25.84;54.84;99674.24;1672170;84;21057;-68
2021/07/07 08:20:14;;;;;;;5.70;2.77;;;;;;;25.78;54.56;99680.92;1663429;84;21160;-68
2021/07/07 08:22:41;;;;;;;4.47;2.70;;;;;;;25.74;56.05;99673.73;1677033;84;21171;-67
2021/07/07 08:25:09;;;;;;;2.95;2.60;;;;;;;25.72;56.70;99680.37;1667300;84;21103;-68
2021/07/07 08:27:36;;;;;;;4.47;2.95;;;;;;;25.74;55.50;99675.94;1652114;85;21110;-68
2021/07/07 08:30:06;;;;;;;7.15;3.37;;;;;;;25.73;54.07;99681.97;1617494;87;21239;-68
2021/07/07 08:32:33;;;;;;;5.97;2.70;;;;;;;25.71;53.87;99682.39;1628554;87;21170;-68
2021/07/07 08:34:59;;;;;;;9.43;2.70;;;;;;;25.78;54.38;99688.55;1625218;87;21112;-68
2021/07/07 08:37:26;;;;;;;4.80;3.00;;;;;;;25.98;53.47;99683.34;1628684;87;21016;-68
2021/07/07 08:39:53;;;;;;;6.17;2.83;;;;;;;26.31;54.41;99679.59;1624219;87;21093;-68
2021/07/07 08:42:19;;;;;;;8.00;2.83;;;;;;;26.65;51.53;99683.19;1622667;87;21008;-68
2021/07/07 08:44:46;;;;;;;10.65;3.05;;;;;;;26.93;53.46;99680.62;1657754;85;21068;-68
2021/07/07 08:47:12;;;;;;;6.97;3.50;;;;;;;27.22;51.49;99679.61;1662371;85;21457;-67
2021/07/07 08:49:39;;;;;;;9.78;6.17;;;;;;;27.41;51.87;99690.80;1658833;85;21092;-68
2021/07/07 08:52:06;;;;;;;5.62;4.72;;;;;;;27.68;51.01;99688.60;1663842;85;21048;-68
2021/07/07 08:54:33;;;;;;;5.95;3.27;;;;;;;27.90;50.63;99688.39;1664047;85;21078;-68
2021/07/07 08:57:07;;;;;;;6.40;2.62;;;;;;;28.09;47.91;99695.31;1667128;84;21925;-67
2021/07/07 08:59:29;;;;;;;6.53;2.83;;;;;;;28.22;49.80;99689.27;1662175;85;21527;-68
2021/07/07 09:02:06;;;;;;;5.72;2.70;;;;;;;28.39;50.75;99687.30;1666109;84;21170;-68
2021/07/07 09:04:44;;;;;;;3.47;2.87;;;;;;;28.41;49.16;99684.84;1667203;84;21130;-68
2021/07/07 09:07:17;;;;;;;3.22;2.45;;;;;;;28.28;49.67;99693.17;1655336;85;21143;-68
2021/07/07 09:09:51;;;;;;;7.72;2.50;;;;;;;28.11;48.89;99688.63;1672756;85;21130;-68
2021/07/07 09:12:28;;;;;;;4.53;3.10;;;;;;;27.96;50.24;99690.91;1665614;85;21053;-68
2021/07/07 09:15:05;;;;;;;6.67;2.72;;;;;;;27.94;50.38;99689.93;1667865;85;21048;-68
2021/07/07 09:17:45;;;;;;;5.25;2.67;;;;;;;28.00;47.91;99691.64;1670253;85;21521;-68
2021/07/07 09:20:41;;;;;;;4.25;3.00;;;;;;;27.98;49.53;99689.86;1667659;85;21077;-68
2021/07/07 09:23:24;;;;;;;7.30;2.50;;;;;;;27.86;47.52;99696.92;1638454;85;21247;-68
2021/07/07 09:26:04;;;;;;;7.72;3.00;;;;;;;27.65;50.09;99703.55;1666125;85;20962;-68
2021/07/07 09:28:36;;;;;;;3.47;2.50;;;;;;;27.67;50.66;99708.16;1672967;85;21756;-68
2021/07/07 09:31:37;;;;;;;5.87;2.90;;;;;;;27.83;50.32;99709.06;1671139;85;21516;-67
2021/07/07 09:34:18;;;;;;;6.58;2.85;;;;;;;28.00;51.85;99705.75;1669152;84;21011;-68
2021/07/07 09:36:47;;;;;;;4.35;2.65;;;;;;;28.38;49.39;99708.30;1667872;85;21145;-67
2021/07/07 09:39:14;;;;;;;5.25;2.72;;;;;;;28.46;48.98;99705.52;1655959;85;21136;-68
2021/07/07 09:41:43;;;;;;;3.37;2.75;;;;;;;28.52;50.34;99721.52;1647682;86;21025;-68
2021/07/07 09:44:10;;;;;;;6.75;2.90;;;;;;;28.61;48.77;99713.89;1633882;86;21031;-69
2021/07/07 09:46:38;;;;;;;5.15;2.58;;;;;;;28.77;48.23;99720.23;1624334;87;21097;-69
2021/07/07 09:49:05;;;;;;;6.12;2.70;;;;;;;28.89;47.88;99718.95;1619168;84;21146;-67
2021/07/07 09:51:33;;;;;;;3.17;2.50;;;;;;;29.11;46.94;99721.32;1659467;84;21020;-67
2021/07/07 09:54:03;;;;;;;5.40;2.52;;;;;;;29.17;45.60;99723.81;1572665;89;21061;-67
2021/07/07 09:56:32;;;;;;;3.02;2.65;;;;;;;29.18;46.37;99724.79;1582501;88;21629;-67
2021/07/07 09:59:00;;;;;;;5.90;2.70;;;;;;;29.23;44.74;99723.48;1613126;85;21044;-68
2021/07/07 10:01:27;;;;;;;4.33;2.60;;;;;;;29.19;44.91;99732.04;1671469;84;21150;-67
2021/07/07 10:03:53;;;;;;;21.80;3.55;;;;;;;29.10;44.63;99732.45;1636206;85;20930;-67
2021/07/07 10:06:21;;;;;;;4.45;2.85;;;;;;;29.08;45.55;99734.92;1647739;85;21068;-67
2021/07/07 10:08:48;;;;;;;3.55;2.65;;;;;;;29.10;46.52;99732.45;1663860;84;21599;-67
2021/07/07 10:11:16;;;;;;;4.67;2.58;;;;;;;29.30;48.45;99738.07;1659900;84;21017;-67
2021/07/07 10:13:46;;;;;;;8.03;2.90;;;;;;;29.53;45.22;99741.56;1665136;84;21169;-68
2021/07/07 10:16:16;;;;;;;6.35;2.50;;;;;;;29.63;44.31;99746.00;1661942;84;21093;-68
2021/07/07 10:18:43;;;;;;;7.30;2.40;;;;;;;29.73;46.61;99741.50;1662425;84;21001;-67
2021/07/07 10:21:10;;;;;;;6.95;2.55;;;;;;;29.95;46.85;99742.39;1667972;84;20990;-67
2021/07/07 10:23:39;;;;;;;3.98;2.60;;;;;;;29.99;46.46;99748.14;1676723;84;21429;-68
2021/07/07 10:26:06;;;;;;;2.65;2.45;;;;;;;29.95;45.24;99741.77;1653221;85;21234;-67
2021/07/07 10:28:34;;;;;;;7.50;2.98;;;;;;;29.95;45.54;99746.02;1676410;84;21092;-67
2021/07/07 10:31:01;;;;;;;3.45;2.70;;;;;;;30.11;46.58;99741.77;1665160;84;21092;-67
2021/07/07 10:33:34;;;;;;;6.92;3.10;;;;;;;30.33;44.54;99747.66;1662970;84;21504;-67
2021/07/07 10:36:21;;;;;;;3.72;2.50;;;;;;;30.15;41.88;99749.55;1663222;84;21128;-67
2021/07/07 10:39:00;;;;;;;3.77;2.90;;;;;;;29.89;43.39;99750.00;1656832;85;21104;-67
2021/07/07 10:41:51;;;;;;;10.65;2.62;;;;;;;29.69;45.07;99748.48;1655720;85;21057;-68
2021/07/07 10:44:29;;;;;;;6.05;2.62;;;;;;;29.60;45.24;99749.09;1675860;84;20975;-69
2021/07/07 10:47:10;;;;;;;6.03;2.87;;;;;;;29.50;45.77;99754.38;1668106;85;21021;-69
2021/07/07 10:49:51;;;;;;;6.70;2.40;;;;;;;29.53;46.05;99757.73;1666551;85;20949;-68
2021/07/07 10:52:40;;;;;;;6.17;2.60;;;;;;;29.81;44.95;99754.85;1667614;84;21489;-68
2021/07/07 10:55:13;;;;;;;6.40;2.30;;;;;;;30.12;45.33;99753.88;1675589;84;21060;-69
2021/07/07 10:57:42;;;;;;;6.28;2.72;;;;;;;30.15;44.01;99755.83;1661285;85;32544;-69
2021/07/07 11:00:34;;;;;;;9.15;2.50;;;;;;;29.84;45.11;99761.84;1674125;84;21061;-69
2021/07/07 11:03:20;;;;;;;8.65;2.72;;;;;;;29.38;45.49;99762.92;1666575;85;21122;-69
2021/07/07 11:05:47;;;;;;;12.45;2.85;;;;;;;28.96;47.37;99755.36;1637306;85;21183;-69
2021/07/07 11:08:18;;;;;;;9.10;2.33;;;;;;;28.59;47.14;99757.30;1664979;85;21058;-69
2021/07/07 11:10:54;;;;;;;5.40;2.60;;;;;;;28.37;47.80;99753.28;1663578;85;21170;-69
2021/07/07 11:13:22;;;;;;;6.67;2.70;;;;;;;28.39;49.17;99755.05;1658355;85;21064;-69
2021/07/07 11:15:49;;;;;;;4.08;2.30;;;;;;;28.40;48.61;99758.06;1660616;85;21125;-70
2021/07/07 11:18:20;;;;;;;5.22;2.50;;;;;;;28.22;46.34;99757.80;1611821;87;21075;-69
2021/07/07 11:21:02;;;;;;;5.62;2.55;;;;;;;27.95;47.35;99761.26;1619480;87;20973;-69
2021/07/07 11:23:28;;;;;;;5.87;2.80;;;;;;;27.75;49.26;99767.42;1670184;84;21107;-69
2021/07/07 11:25:55;;;;;;;6.87;2.33;;;;;;;27.74;48.50;99763.01;1651831;85;21077;-69
2021/07/07 11:28:21;;;;;;;2.42;2.20;;;;;;;27.95;49.89;99762.67;1677615;84;21034;-69